X  Close Metar Aviation Weather Data     KHVN Tweed-New Haven
Temperature
36°F Temperature
21°F Dewpoint
56% Humidity



Wind
9 MPH
14 KM/H
4 M/S
8 KTS



80°
East
Current Conditions

Overcast Overcast
Pressure 1028.82 (hPa) - 30.38 (inHg)
Visibility 10 (mile) - 16.1 (km)
Airport
Airport-code KHVN

Location Tweed-New Haven 5 (mi)

Metar:
KHVN 180953Z AUTO 08008KT 10SM OVC100 02/M06 A3038 RMK AO2 SLP286 T00221056

Time: 02-18-2020 04:53 EST